Stony Run, Pennsylvania
Current Conditions -  °F | °C
As of 7:35 PM on Saturday 25 Oct 2014 (Local Time) from KXLL Reporting Station
Broken Clouds Broken Clouds  
Wind Chill: 63°   Ceiling: 7000
Heat Index: 63°   Visibility: 10mi
Dew Point: 43°   Wind: 8mph
Humidity: 48%   Direction: 220°SW
Pressure: 29.67"   Gusts: NA
Location:  40.62°N, 75.82°W
Report Text: KXLL 252335Z AUTO 22007KT 10SM BKN070 17/06 A2967 RMK AO2
Loading
Personal Weather Stations






























Interactive Weather Map
Tropical Storm Tracking
New forecast layout! Learn more

10-Day Weather Forecast

Advertisements
Track Severe Weather on mobile